Portada
METAR-TAF:

METAR-TAF

Aeroports :

Chadron, Nebraska, Estats Units d'Amèrica

latitud: 42-50-15N, longitud: 103-05-43W, altitud: 1005 m

Observació

L'informe es va fer fa 40 minuts, a les 01:53 UTC
Vent 5 kt del Sud/Sud-Oest
Temperatura 2°C
Humitat 75%
Pressió 1011 hPa
Visibilitat: 16.1 km
Cel clar

METAR: KCDR 080153Z AUTO 21005KT 10SM CLR 02/M02 A2985 RMK AO2 SLP142 T00221022

Hora: 19:33 (02:33 UTC)

Pronòstic

L'informe es va fer fa 2 hores i 54 minuts, a les 23:39 UTC
Pronòstic vàlid del 08 a les 00 UTC al 08 a les 24 UTC
Vent 7 kt del Oest/Sud-Oest
Visibilitat: 10 km
Cel ennuvolat a una alçada de 15000 ft
A partir de les 08 a les 0700 UTC
Vent 6 kt del Sud-Oest
Visibilitat: 10 km
Cel ennuvolat a una alçada de 15000 ft
A partir de les 08 a les 1900 UTC
Vent 8 kt del Oest/Sud-Oest
Visibilitat: 10 km
Cel ennuvolat a una alçada de 15000 ft

TAF: KCDR 072339Z 0800/0824 25007KT P6SM BKN150 FM080700 22006KT P6SM BKN150 FM081900 25008KT P6SM BKN150

Observacions i pronòstics meteorològics de més de 4000 aeroports (METAR i TAF).

Les estacions disponibles són els punts grocs i vermells al mapa.

Posi el ratolí al punt desitjat per veure el nom de l'estació.

Feu clic per veure les observacions i els pronòstics meteorològics.

Per canviar el mapa: feu clic els botons verds amb una creu de color negre per apropar; al botó verd amb un guió per allunyar la imatge; o en les fletxes verdes per a mapes adjacents.


METAR-TAF: